Time;durP1;ratioP1;P1;durP2;ratioP2;P2;SDS_P1;SDS_P2;PMS_P1;PMS_P2;Temp;Humidity;BMP_temperature;BMP_pressure;BME280_temperature;BME280_humidity;BME280_pressure;Samples;Min_cycle;Max_cycle;Signal;HPM_P1;HPM_P2
2023/12/31 00:00:32;;;;;;;7.50;2.20;;;8.70;99.90;;;;;;5041959;28;19921;-70
2023/12/31 00:02:58;;;;;;;4.63;2.40;;;8.70;99.90;;;;;;5036167;28;20290;-70
2023/12/31 00:05:24;;;;;;;4.25;1.65;;;8.80;99.90;;;;;;5036393;28;20065;-70
2023/12/31 00:07:50;;;;;;;4.47;1.67;;;8.70;99.90;;;;;;5037186;28;20123;-70
2023/12/31 00:10:17;;;;;;;3.50;1.50;;;8.80;99.90;;;;;;5041522;28;20037;-70
2023/12/31 00:12:43;;;;;;;5.03;1.83;;;8.80;99.90;;;;;;5046283;28;21031;-70
2023/12/31 00:15:09;;;;;;;5.28;2.50;;;8.80;99.90;;;;;;5046069;28;20052;-70
2023/12/31 00:17:34;;;;;;;4.05;1.95;;;8.80;99.90;;;;;;5045462;28;20390;-70
2023/12/31 00:20:01;;;;;;;3.47;1.90;;;8.80;99.90;;;;;;5044290;28;20505;-70
2023/12/31 00:22:26;;;;;;;3.38;1.85;;;8.90;99.90;;;;;;5045130;28;20061;-70
2023/12/31 00:24:54;;;;;;;3.77;1.70;;;8.90;99.90;;;;;;5045477;28;20437;-70
2023/12/31 00:27:20;;;;;;;3.00;1.60;;;8.90;99.90;;;;;;5039527;28;20497;-70
2023/12/31 00:29:47;;;;;;;3.30;1.90;;;8.90;99.90;;;;;;5043295;28;20309;-70
2023/12/31 00:32:12;;;;;;;;;;;8.90;99.90;;;;;;5035477;28;20042;-70
2023/12/31 00:34:38;;;;;;;3.10;1.67;;;8.90;99.90;;;;;;5043402;28;19916;-70
2023/12/31 00:37:04;;;;;;;8.23;2.00;;;8.90;99.90;;;;;;5039742;28;20064;-70
2023/12/31 00:39:29;;;;;;;4.77;1.90;;;8.90;99.90;;;;;;5037565;28;20077;-70
2023/12/31 00:41:55;;;;;;;4.07;2.00;;;8.90;99.90;;;;;;5033943;28;20266;-70
2023/12/31 00:44:21;;;;;;;4.13;1.70;;;8.80;99.90;;;;;;5048470;28;20044;-70
2023/12/31 00:46:47;;;;;;;4.53;1.50;;;8.80;99.90;;;;;;5039738;28;20220;-70
2023/12/31 00:49:12;;;;;;;4.37;2.23;;;8.70;99.90;;;;;;5046727;28;20301;-70
2023/12/31 00:51:38;;;;;;;5.78;1.90;;;8.70;99.90;;;;;;5037182;28;20537;-70
2023/12/31 00:54:04;;;;;;;3.25;2.03;;;8.70;99.90;;;;;;5039079;28;20048;-70
2023/12/31 00:56:30;;;;;;;2.70;1.40;;;8.70;99.90;;;;;;5047182;28;20074;-70
2023/12/31 00:58:55;;;;;;;3.37;1.83;;;8.60;99.90;;;;;;5037015;28;20279;-71
2023/12/31 01:01:21;;;;;;;3.58;1.52;;;8.60;99.90;;;;;;5037732;28;20048;-71
2023/12/31 01:03:47;;;;;;;3.83;1.60;;;8.60;99.90;;;;;;5035315;28;20123;-69
2023/12/31 01:06:13;;;;;;;3.85;1.70;;;8.70;99.90;;;;;;5031671;28;20363;-70
2023/12/31 01:08:38;;;;;;;5.87;1.33;;;8.60;99.90;;;;;;5026535;28;20107;-69
2023/12/31 01:11:04;;;;;;;7.60;1.40;;;8.60;99.90;;;;;;5036083;28;20501;-69
2023/12/31 01:13:31;;;;;;;2.40;1.73;;;8.60;99.90;;;;;;5030006;28;20493;-69
2023/12/31 01:15:56;;;;;;;3.10;1.73;;;8.60;99.90;;;;;;5032690;28;20117;-69
2023/12/31 01:18:22;;;;;;;4.50;1.93;;;8.60;99.90;;;;;;5029664;28;20128;-69
2023/12/31 01:20:48;;;;;;;5.15;1.73;;;8.60;99.90;;;;;;5034846;28;20047;-69
2023/12/31 01:23:14;;;;;;;7.53;2.07;;;8.60;99.90;;;;;;5027386;28;20114;-69
2023/12/31 01:25:40;;;;;;;2.75;1.27;;;8.60;99.90;;;;;;5029863;28;20060;-69
2023/12/31 01:28:06;;;;;;;5.07;1.80;;;8.60;99.90;;;;;;5027726;28;20049;-69
2023/12/31 01:30:31;;;;;;;4.07;1.50;;;8.60;99.90;;;;;;5033117;28;20098;-69
2023/12/31 01:32:57;;;;;;;3.03;1.43;;;8.60;99.90;;;;;;5024820;28;20038;-69
2023/12/31 01:35:23;;;;;;;2.77;1.37;;;8.60;99.90;;;;;;5029191;28;20057;-69
2023/12/31 01:37:48;;;;;;;5.73;1.60;;;8.60;99.90;;;;;;5033469;28;20045;-69
2023/12/31 01:40:14;;;;;;;3.00;1.20;;;8.60;99.90;;;;;;5037162;28;20229;-69
2023/12/31 01:42:40;;;;;;;3.00;1.40;;;8.60;99.90;;;;;;5033519;28;20029;-70
2023/12/31 01:45:06;;;;;;;3.93;1.40;;;8.50;99.90;;;;;;5033702;28;20556;-69
2023/12/31 01:47:32;;;;;;;2.00;0.95;;;8.50;99.90;;;;;;5036258;28;20067;-69
2023/12/31 01:49:58;;;;;;;;;;;8.60;99.90;;;;;;5040793;28;20110;-69
2023/12/31 01:52:24;;;;;;;3.22;1.27;;;8.50;99.90;;;;;;5028943;28;19924;-69
2023/12/31 01:54:52;;;;;;;3.45;1.63;;;8.50;99.90;;;;;;5039873;28;20091;-69
2023/12/31 01:57:23;;;;;;;3.47;0.90;;;8.50;99.90;;;;;;5028073;28;20394;-69
2023/12/31 01:59:49;;;;;;;4.20;1.73;;;8.50;99.90;;;;;;5037511;28;20045;-69
2023/12/31 02:02:15;;;;;;;2.92;1.50;;;8.40;99.90;;;;;;5027591;28;20059;-69
2023/12/31 02:04:42;;;;;;;1.35;1.00;;;8.40;99.90;;;;;;5034465;28;20057;-70
2023/12/31 02:07:07;;;;;;;2.63;1.30;;;8.40;99.90;;;;;;5033733;28;20049;-69
2023/12/31 02:09:33;;;;;;;3.63;1.50;;;8.40;99.90;;;;;;5018348;28;20453;-69
2023/12/31 02:11:59;;;;;;;3.42;1.40;;;8.40;99.90;;;;;;5026897;28;20179;-69
2023/12/31 02:14:25;;;;;;;5.05;1.10;;;8.40;99.90;;;;;;5038617;28;20053;-69
2023/12/31 02:16:50;;;;;;;2.60;1.33;;;8.30;99.90;;;;;;5039953;28;20047;-69
2023/12/31 02:19:16;;;;;;;3.33;1.00;;;8.30;99.90;;;;;;5031343;28;20504;-69
2023/12/31 02:21:42;;;;;;;2.73;1.10;;;8.30;99.90;;;;;;5038673;28;20083;-69
2023/12/31 02:24:11;;;;;;;2.67;1.13;;;8.30;99.90;;;;;;5027502;28;20455;-69
2023/12/31 02:26:37;;;;;;;2.35;1.10;;;8.20;99.90;;;;;;5028252;28;20759;-69
2023/12/31 02:29:03;;;;;;;2.30;1.10;;;8.20;99.90;;;;;;5033283;28;20405;-69
2023/12/31 02:31:29;;;;;;;5.30;1.20;;;8.20;99.90;;;;;;5026166;28;20076;-70
2023/12/31 02:33:54;;;;;;;3.43;1.23;;;8.20;99.90;;;;;;5037492;28;20065;-69
2023/12/31 02:36:20;;;;;;;2.23;0.80;;;8.20;99.90;;;;;;5038015;28;20443;-69
2023/12/31 02:38:46;;;;;;;3.67;1.55;;;8.20;99.90;;;;;;5038627;28;20037;-70
2023/12/31 02:41:11;;;;;;;3.03;1.10;;;8.20;99.90;;;;;;5032806;28;20508;-69
2023/12/31 02:43:37;;;;;;;3.83;1.00;;;8.10;99.90;;;;;;5028342;28;20055;-70
2023/12/31 02:46:03;;;;;;;1.65;0.85;;;8.10;99.90;;;;;;5038943;28;20052;-69
2023/12/31 02:48:29;;;;;;;2.22;1.17;;;8.10;99.90;;;;;;5023869;28;20566;-69
2023/12/31 02:50:54;;;;;;;3.73;0.90;;;8.10;99.90;;;;;;5037465;28;20036;-69
2023/12/31 02:53:20;;;;;;;2.53;0.63;;;8.10;99.90;;;;;;5029649;28;20091;-69
2023/12/31 02:55:46;;;;;;;1.10;0.80;;;8.10;99.90;;;;;;5034571;28;20497;-69
2023/12/31 02:58:11;;;;;;;2.93;0.90;;;8.10;99.90;;;;;;5035629;28;20115;-69
2023/12/31 03:00:37;;;;;;;1.37;0.70;;;8.10;99.90;;;;;;5039878;28;20070;-69
2023/12/31 03:03:03;;;;;;;3.43;1.03;;;8.10;99.90;;;;;;5030302;28;20212;-69
2023/12/31 03:05:28;;;;;;;3.03;0.93;;;8.10;99.90;;;;;;5026326;28;20041;-69
2023/12/31 03:07:54;;;;;;;4.47;1.00;;;8.10;99.90;;;;;;5040673;28;20052;-69
2023/12/31 03:10:19;;;;;;;2.20;0.77;;;8.10;99.90;;;;;;5034318;28;20079;-69
2023/12/31 03:12:45;;;;;;;2.87;0.80;;;8.10;99.90;;;;;;5040547;28;20436;-69
2023/12/31 03:15:11;;;;;;;1.63;0.70;;;8.10;99.90;;;;;;5028001;28;20078;-69
2023/12/31 03:17:36;;;;;;;2.37;0.73;;;8.10;99.90;;;;;;5010629;28;20052;-69
2023/12/31 03:20:02;;;;;;;1.50;0.80;;;8.10;99.90;;;;;;5035497;28;20167;-70
2023/12/31 03:22:28;;;;;;;1.85;0.60;;;8.10;99.90;;;;;;5036322;28;20486;-69
2023/12/31 03:24:54;;;;;;;2.30;0.80;;;8.10;99.90;;;;;;5034870;28;20086;-69
2023/12/31 03:27:19;;;;;;;2.90;0.80;;;8.10;99.90;;;;;;5034301;28;20379;-69
2023/12/31 03:29:45;;;;;;;1.80;0.83;;;8.10;99.90;;;;;;5032891;28;20140;-69
2023/12/31 03:32:11;;;;;;;2.00;0.80;;;8.10;99.90;;;;;;5029873;28;20450;-69
2023/12/31 03:34:37;;;;;;;2.13;0.90;;;8.10;99.90;;;;;;5030153;28;20041;-69
2023/12/31 03:37:02;;;;;;;2.60;0.87;;;7.90;99.90;;;;;;5029666;28;20391;-69
2023/12/31 03:39:28;;;;;;;1.20;0.60;;;8.10;99.90;;;;;;5044862;28;20194;-69
2023/12/31 03:41:53;;;;;;;1.70;1.00;;;8.10;99.90;;;;;;5031368;28;20040;-69
2023/12/31 03:44:19;;;;;;;1.50;0.67;;;8.10;99.90;;;;;;5033447;28;20095;-69
2023/12/31 03:46:45;;;;;;;2.00;1.17;;;8.10;99.90;;;;;;5041335;28;20048;-69
2023/12/31 03:49:11;;;;;;;2.27;0.60;;;8.20;99.90;;;;;;5034971;28;20115;-69
2023/12/31 03:51:37;;;;;;;;;;;8.20;99.90;;;;;;5032285;28;20317;-69
2023/12/31 03:54:05;;;;;;;1.52;0.65;;;8.20;99.90;;;;;;5029032;28;19983;-69
2023/12/31 03:56:31;;;;;;;2.30;0.90;;;8.20;99.90;;;;;;5035981;28;20102;-69
2023/12/31 03:58:57;;;;;;;2.27;0.80;;;8.20;99.90;;;;;;5038103;28;20492;-69
2023/12/31 04:01:22;;;;;;;1.07;0.60;;;8.20;99.90;;;;;;5038123;28;20367;-69
2023/12/31 04:03:48;;;;;;;3.57;1.70;;;8.10;99.90;;;;;;5031705;28;20362;-70
2023/12/31 04:06:13;;;;;;;3.70;1.07;;;8.20;99.90;;;;;;5029375;28;20041;-69
2023/12/31 04:08:39;;;;;;;3.97;1.10;;;8.20;99.90;;;;;;5033120;28;20513;-69
2023/12/31 04:11:06;;;;;;;3.03;1.10;;;8.20;99.90;;;;;;5035917;28;20045;-69
2023/12/31 04:13:32;;;;;;;3.25;1.17;;;8.20;99.90;;;;;;5031104;28;20146;-69
2023/12/31 04:15:58;;;;;;;5.67;1.47;;;8.20;99.90;;;;;;5034084;28;20342;-69
2023/12/31 04:18:23;;;;;;;2.43;1.27;;;8.20;99.90;;;;;;5036609;28;20440;-70
2023/12/31 04:20:49;;;;;;;3.27;1.27;;;8.20;99.90;;;;;;5032127;28;20382;-69
2023/12/31 04:23:14;;;;;;;5.03;1.77;;;8.20;99.90;;;;;;5031214;28;20493;-68
2023/12/31 04:25:40;;;;;;;2.40;1.60;;;8.20;99.90;;;;;;5027303;28;20103;-69
2023/12/31 04:28:06;;;;;;;3.50;1.00;;;8.20;99.90;;;;;;5035935;28;20524;-69
2023/12/31 04:30:31;;;;;;;2.10;0.90;;;8.20;99.90;;;;;;5035773;28;20048;-69
2023/12/31 04:32:57;;;;;;;1.43;0.83;;;8.20;99.90;;;;;;5030944;28;20064;-69
2023/12/31 04:35:22;;;;;;;1.93;1.00;;;8.20;99.90;;;;;;5037721;28;20049;-69
2023/12/31 04:37:48;;;;;;;3.63;1.53;;;8.30;99.90;;;;;;5029489;28;20114;-69
2023/12/31 04:40:14;;;;;;;4.43;1.70;;;8.20;99.90;;;;;;5026858;28;20410;-69
2023/12/31 04:42:40;;;;;;;5.30;1.75;;;8.20;99.90;;;;;;5039239;28;20068;-69
2023/12/31 04:45:07;;;;;;;4.80;1.57;;;8.20;99.90;;;;;;5037043;28;20045;-69
2023/12/31 04:47:34;;;;;;;4.55;1.90;;;8.20;99.90;;;;;;5030193;28;20112;-69
2023/12/31 04:50:00;;;;;;;2.80;1.45;;;8.20;99.90;;;;;;5027401;28;20311;-69
2023/12/31 04:52:26;;;;;;;3.20;1.50;;;8.20;99.90;;;;;;5032564;28;20461;-69
2023/12/31 04:54:51;;;;;;;3.63;1.63;;;8.20;99.90;;;;;;5030716;28;20037;-69
2023/12/31 04:57:17;;;;;;;3.53;1.50;;;8.20;99.90;;;;;;5039661;28;20048;-69
2023/12/31 04:59:43;;;;;;;5.03;1.93;;;8.30;99.90;;;;;;5034595;28;20116;-69
2023/12/31 05:02:08;;;;;;;3.63;1.30;;;8.20;99.90;;;;;;5038467;28;20041;-69
2023/12/31 05:04:34;;;;;;;3.40;1.60;;;8.20;99.90;;;;;;5038502;28;20076;-69
2023/12/31 05:06:59;;;;;;;2.83;1.20;;;8.20;99.90;;;;;;5034012;28;20049;-69
2023/12/31 05:09:25;;;;;;;2.93;1.40;;;8.20;99.90;;;;;;5041595;28;20033;-69
2023/12/31 05:11:51;;;;;;;2.57;1.20;;;8.20;99.90;;;;;;5033585;28;20036;-69
2023/12/31 05:14:16;;;;;;;4.10;1.50;;;8.20;99.90;;;;;;5033574;28;20041;-69
2023/12/31 05:16:42;;;;;;;7.73;2.93;;;8.20;99.90;;;;;;5042085;28;20090;-69
2023/12/31 05:19:08;;;;;;;2.47;1.40;;;8.20;99.90;;;;;;5038388;28;20414;-69
2023/12/31 05:21:34;;;;;;;2.20;1.27;;;8.20;99.90;;;;;;5033551;28;20306;-69
2023/12/31 05:24:00;;;;;;;3.97;1.30;;;8.20;99.90;;;;;;5038024;28;20593;-69
2023/12/31 05:26:25;;;;;;;2.00;1.20;;;8.20;99.90;;;;;;5042299;28;20116;-69
2023/12/31 05:28:52;;;;;;;4.03;1.43;;;8.20;99.90;;;;;;5030695;28;20529;-69
2023/12/31 05:31:18;;;;;;;2.42;1.20;;;8.20;99.90;;;;;;5034611;28;20044;-69
2023/12/31 05:33:44;;;;;;;3.57;1.20;;;8.20;99.90;;;;;;5038491;28;20406;-69
2023/12/31 05:36:11;;;;;;;2.35;1.25;;;8.20;99.90;;;;;;5037093;28;20033;-69
2023/12/31 05:38:36;;;;;;;;;;;8.30;99.90;;;;;;5041979;28;20110;-69
2023/12/31 05:41:02;;;;;;;2.45;1.40;;;8.30;99.90;;;;;;5036355;28;19987;-69
2023/12/31 05:43:28;;;;;;;4.30;1.40;;;8.30;99.90;;;;;;5039716;28;20053;-69
2023/12/31 05:45:53;;;;;;;2.40;1.40;;;8.20;99.90;;;;;;5044318;28;20043;-71
2023/12/31 05:48:19;;;;;;;5.90;1.50;;;8.20;99.90;;;;;;5040455;28;20414;-71
2023/12/31 05:50:46;;;;;;;2.73;1.13;;;8.30;99.90;;;;;;5039829;28;20037;-71
2023/12/31 05:53:12;;;;;;;3.65;1.40;;;8.30;99.90;;;;;;5039808;28;20048;-71
2023/12/31 05:55:37;;;;;;;2.57;1.40;;;8.20;99.90;;;;;;5036683;28;20038;-69
2023/12/31 05:58:03;;;;;;;5.40;2.00;;;8.30;99.90;;;;;;5040641;28;20305;-69
2023/12/31 06:00:29;;;;;;;4.17;1.77;;;8.20;99.90;;;;;;5039006;28;20037;-69
2023/12/31 06:02:55;;;;;;;3.75;1.73;;;8.20;99.90;;;;;;5035343;28;20099;-69
2023/12/31 06:05:21;;;;;;;4.97;1.40;;;8.30;99.90;;;;;;5035337;28;20037;-69
2023/12/31 06:07:47;;;;;;;2.90;1.52;;;8.30;99.90;;;;;;5038052;28;20517;-69
2023/12/31 06:10:12;;;;;;;2.97;1.40;;;8.30;99.90;;;;;;5034607;28;20450;-69
2023/12/31 06:12:38;;;;;;;2.67;1.47;;;8.30;99.90;;;;;;5038234;28;20412;-69
2023/12/31 06:15:09;;;;;;;3.33;1.38;;;8.30;99.90;;;;;;5033755;28;20045;-69
2023/12/31 06:17:35;;;;;;;4.93;1.98;;;8.30;99.90;;;;;;5033733;28;20317;-69
2023/12/31 06:20:02;;;;;;;3.40;1.58;;;8.30;99.90;;;;;;5030362;28;20045;-69
2023/12/31 06:22:27;;;;;;;6.30;1.58;;;8.30;99.90;;;;;;5037678;28;20805;-69
2023/12/31 06:24:53;;;;;;;4.50;2.00;;;8.30;99.90;;;;;;5033890;28;20079;-69
2023/12/31 06:27:19;;;;;;;4.00;1.87;;;8.30;99.90;;;;;;5033927;28;20473;-69
2023/12/31 06:29:44;;;;;;;5.70;2.60;;;8.30;99.90;;;;;;5034532;28;20390;-69
2023/12/31 06:32:10;;;;;;;4.97;1.93;;;8.30;99.90;;;;;;5034537;28;20032;-69
2023/12/31 06:34:35;;;;;;;3.30;1.50;;;8.30;99.90;;;;;;5044012;28;20053;-69
2023/12/31 06:37:01;;;;;;;4.30;2.23;;;8.30;99.90;;;;;;5042505;28;20179;-69
2023/12/31 06:39:26;;;;;;;4.17;1.73;;;8.30;99.90;;;;;;5034791;28;20041;-69
2023/12/31 06:41:52;;;;;;;7.00;1.90;;;8.30;99.90;;;;;;5032747;28;20406;-69
2023/12/31 06:44:18;;;;;;;3.47;2.07;;;8.30;99.90;;;;;;5034663;28;20040;-69
2023/12/31 06:46:43;;;;;;;3.87;1.40;;;8.30;99.90;;;;;;5036554;28;20044;-69
2023/12/31 06:49:09;;;;;;;4.90;1.33;;;8.40;99.90;;;;;;5034546;28;20418;-69
2023/12/31 06:51:34;;;;;;;6.17;1.37;;;8.30;99.90;;;;;;5040488;28;20112;-69
2023/12/31 06:54:00;;;;;;;4.07;1.43;;;8.40;99.90;;;;;;5038729;28;20051;-69
2023/12/31 06:56:25;;;;;;;2.83;1.20;;;8.30;99.90;;;;;;5041787;28;20048;-69
2023/12/31 06:58:51;;;;;;;3.17;1.50;;;8.40;99.90;;;;;;5032558;28;20049;-69
2023/12/31 07:01:17;;;;;;;3.67;1.70;;;8.40;99.90;;;;;;5038853;28;20539;-69
2023/12/31 07:03:43;;;;;;;3.93;1.57;;;8.40;99.90;;;;;;5036313;28;20092;-69
2023/12/31 07:06:09;;;;;;;6.43;2.15;;;8.40;99.90;;;;;;5035339;28;20053;-70
2023/12/31 07:08:34;;;;;;;4.17;1.60;;;8.40;99.90;;;;;;5037066;28;20111;-70
2023/12/31 07:11:00;;;;;;;3.83;1.30;;;8.40;99.90;;;;;;5033698;28;20091;-71
2023/12/31 07:13:26;;;;;;;10.65;1.88;;;8.40;99.90;;;;;;5035906;28;20037;-70
2023/12/31 07:15:52;;;;;;;2.87;1.30;;;8.40;99.90;;;;;;5031350;28;20041;-70
2023/12/31 07:18:17;;;;;;;5.33;1.50;;;8.40;99.90;;;;;;5040796;28;20112;-70
2023/12/31 07:20:43;;;;;;;3.33;1.37;;;8.40;99.90;;;;;;5031611;28;20044;-70
2023/12/31 07:23:09;;;;;;;3.40;1.63;;;8.40;99.90;;;;;;5037708;28;20029;-70
2023/12/31 07:25:36;;;;;;;2.75;1.27;;;8.40;99.90;;;;;;5034518;28;20553;-70
2023/12/31 07:28:01;;;;;;;;;;;8.50;99.90;;;;;;5038691;28;20410;-70
2023/12/31 07:30:27;;;;;;;1.90;1.15;;;8.50;99.90;;;;;;5038243;28;19917;-71
2023/12/31 07:32:52;;;;;;;2.37;1.50;;;8.50;99.90;;;;;;5036801;28;20047;-70
2023/12/31 07:35:18;;;;;;;4.20;1.50;;;8.50;99.90;;;;;;5039570;28;20037;-70
2023/12/31 07:37:44;;;;;;;5.27;1.67;;;8.40;99.90;;;;;;5039665;28;20319;-70
2023/12/31 07:40:10;;;;;;;3.57;1.77;;;8.50;99.90;;;;;;5035169;28;20530;-70
2023/12/31 07:42:39;;;;;;;3.65;1.50;;;8.50;99.90;;;;;;5035506;28;20400;-70
2023/12/31 07:45:06;;;;;;;2.80;1.60;;;8.50;99.90;;;;;;5030215;28;20045;-70
2023/12/31 07:47:39;;;;;;;;;;;8.50;99.90;;;;;;5037645;28;20432;-70
2023/12/31 07:50:06;;;;;;;4.57;2.50;;;8.50;99.90;;;;;;5037553;28;20282;-70
2023/12/31 07:52:32;;;;;;;3.10;1.95;;;8.50;99.90;;;;;;5034779;28;20041;-70
2023/12/31 07:54:58;;;;;;;3.80;1.70;;;8.50;99.90;;;;;;5033814;28;20052;-70
2023/12/31 07:57:23;;;;;;;3.10;1.73;;;8.50;99.90;;;;;;5036172;28;20163;-70
2023/12/31 07:59:49;;;;;;;5.73;1.50;;;8.50;99.90;;;;;;5034877;28;20044;-70
2023/12/31 08:02:14;;;;;;;6.87;2.10;;;8.50;99.90;;;;;;5032141;28;20041;-70
2023/12/31 08:04:40;;;;;;;2.53;1.37;;;8.50;99.90;;;;;;5038937;28;20033;-70
2023/12/31 08:07:06;;;;;;;4.47;2.20;;;8.50;99.90;;;;;;5038652;28;20527;-70
2023/12/31 08:09:31;;;;;;;3.80;1.63;;;8.50;99.90;;;;;;5020710;28;20041;-70
2023/12/31 08:11:57;;;;;;;3.17;1.67;;;8.50;99.90;;;;;;5037657;28;20606;-70
2023/12/31 08:14:23;;;;;;;3.47;1.83;;;8.50;99.90;;;;;;5037093;28;20474;-70
2023/12/31 08:16:48;;;;;;;3.13;1.80;;;8.50;99.90;;;;;;5031575;28;20049;-70
2023/12/31 08:19:14;;;;;;;4.78;1.65;;;8.50;99.90;;;;;;5036789;28;20064;-70
2023/12/31 08:21:40;;;;;;;4.03;1.70;;;8.50;99.90;;;;;;5034452;28;20094;-70
2023/12/31 08:24:06;;;;;;;3.05;1.75;;;8.50;99.90;;;;;;5034141;28;20587;-70
2023/12/31 08:26:32;;;;;;;3.58;1.63;;;8.50;99.90;;;;;;5037479;28;20411;-70
2023/12/31 08:28:59;;;;;;;3.63;1.87;;;8.50;99.90;;;;;;5034290;28;20040;-70
2023/12/31 08:31:26;;;;;;;2.83;1.70;;;8.50;99.90;;;;;;5037594;28;20201;-70
2023/12/31 08:33:51;;;;;;;5.18;1.45;;;8.50;99.90;;;;;;5045071;28;20044;-70
2023/12/31 08:36:17;;;;;;;3.40;2.10;;;8.50;99.90;;;;;;5034463;28;20130;-70
2023/12/31 08:38:43;;;;;;;5.03;1.90;;;8.50;99.90;;;;;;5041797;28;20303;-70
2023/12/31 08:41:09;;;;;;;4.07;2.00;;;8.60;99.90;;;;;;5042114;28;20057;-70
2023/12/31 08:43:35;;;;;;;3.55;1.92;;;8.60;99.90;;;;;;5035868;28;20365;-70
2023/12/31 08:46:01;;;;;;;4.35;1.95;;;8.60;99.90;;;;;;5038832;28;20469;-70
2023/12/31 08:48:26;;;;;;;3.87;1.80;;;8.70;99.90;;;;;;5041147;28;20041;-70
2023/12/31 08:50:52;;;;;;;4.20;1.60;;;8.70;99.90;;;;;;5037049;28;20333;-70
2023/12/31 08:53:19;;;;;;;3.40;1.83;;;8.70;99.90;;;;;;5040231;28;20394;-70
2023/12/31 08:55:44;;;;;;;3.35;1.45;;;8.70;99.90;;;;;;5027347;28;20041;-70
2023/12/31 08:58:12;;;;;;;3.63;2.10;;;8.80;99.90;;;;;;5041506;28;20143;-70
2023/12/31 09:00:37;;;;;;;3.17;1.70;;;8.80;99.90;;;;;;5035557;28;20040;-70
2023/12/31 09:03:03;;;;;;;5.13;2.50;;;8.80;99.90;;;;;;5037536;28;20037;-69
2023/12/31 09:05:29;;;;;;;2.65;1.70;;;8.80;99.90;;;;;;5042999;28;20640;-69
2023/12/31 09:07:55;;;;;;;5.03;2.70;;;8.80;99.90;;;;;;5035127;28;20042;-69
2023/12/31 09:10:20;;;;;;;3.67;1.83;;;8.90;99.90;;;;;;5036099;28;20524;-69
2023/12/31 09:12:47;;;;;;;4.35;2.28;;;8.90;99.90;;;;;;5046449;28;20442;-69
2023/12/31 09:15:12;;;;;;;;;;;8.90;99.90;;;;;;5022759;28;20055;-69
2023/12/31 09:17:38;;;;;;;5.20;2.10;;;8.90;99.90;;;;;;5042876;28;20008;-69
2023/12/31 09:20:08;;;;;;;5.47;1.83;;;8.90;99.90;;;;;;5037844;28;20524;-69
2023/12/31 09:22:34;;;;;;;4.13;1.90;;;8.90;99.90;;;;;;5041413;28;20044;-69
2023/12/31 09:25:01;;;;;;;3.28;2.15;;;8.90;99.90;;;;;;5046191;28;20064;-69
2023/12/31 09:27:26;;;;;;;4.82;1.90;;;9.00;99.90;;;;;;5037376;28;20071;-69
2023/12/31 09:29:52;;;;;;;3.50;2.07;;;9.00;99.90;;;;;;5041788;28;20476;-69
2023/12/31 09:32:18;;;;;;;5.67;2.60;;;9.00;99.90;;;;;;5043103;28;20036;-69
2023/12/31 09:34:43;;;;;;;3.07;1.83;;;9.00;99.90;;;;;;5043596;28;20045;-69
2023/12/31 09:37:09;;;;;;;2.47;1.70;;;8.90;99.90;;;;;;5035780;28;20079;-69
2023/12/31 09:39:35;;;;;;;4.47;2.17;;;8.90;99.90;;;;;;5042571;28;20408;-69
2023/12/31 09:42:10;;;;;;;2.87;1.60;;;9.00;99.90;;;;;;5032811;28;20129;-69
2023/12/31 09:44:36;;;;;;;4.35;1.88;;;8.90;99.90;;;;;;5039144;28;20033;-71
2023/12/31 09:47:08;;;;;;;4.10;2.33;;;8.90;99.90;;;;;;5039104;28;20111;-71
2023/12/31 09:49:35;;;;;;;3.63;2.35;;;8.90;99.90;;;;;;5037472;28;20044;-70
2023/12/31 09:52:05;;;;;;;3.70;2.30;;;8.90;99.90;;;;;;5037910;28;20095;-71
2023/12/31 09:54:32;;;;;;;6.13;2.00;;;8.90;99.90;;;;;;5035357;28;20052;-71
2023/12/31 09:56:58;;;;;;;4.57;2.35;;;8.90;99.90;;;;;;5036583;28;20447;-71
2023/12/31 09:59:25;;;;;;;4.05;1.95;;;8.90;99.90;;;;;;5043045;28;20120;-71
2023/12/31 10:01:54;;;;;;;6.10;2.20;;;8.90;99.90;;;;;;5037052;28;20045;-69
2023/12/31 10:04:21;;;;;;;2.95;1.70;;;8.90;99.90;;;;;;5026972;28;20056;-69
2023/12/31 10:06:48;;;;;;;4.68;2.33;;;8.90;99.90;;;;;;5043482;28;20041;-70
2023/12/31 10:09:18;;;;;;;5.47;2.50;;;8.90;99.90;;;;;;5021789;28;20436;-70
2023/12/31 10:11:44;;;;;;;4.85;2.35;;;8.90;99.90;;;;;;5039574;28;20048;-70
2023/12/31 10:14:11;;;;;;;;;;;9.00;99.90;;;;;;5038051;28;20102;-70
2023/12/31 10:16:40;;;;;;;4.55;2.42;;;9.00;99.90;;;;;;5033740;28;19917;-70
2023/12/31 10:19:07;;;;;;;4.28;2.65;;;9.00;99.90;;;;;;5037368;28;20112;-70
2023/12/31 10:21:33;;;;;;;10.15;3.00;;;9.00;99.90;;;;;;5036605;28;20083;-70
2023/12/31 10:23:59;;;;;;;4.78;2.55;;;9.00;99.90;;;;;;5041179;28;20044;-70
2023/12/31 10:26:24;;;;;;;6.13;2.83;;;9.10;99.90;;;;;;5039882;28;20041;-70
2023/12/31 10:28:50;;;;;;;4.83;2.37;;;9.10;99.90;;;;;;5035791;28;20029;-70
2023/12/31 10:31:16;;;;;;;4.93;2.72;;;9.20;99.90;;;;;;5038834;28;20037;-70
2023/12/31 10:33:42;;;;;;;9.80;3.30;;;9.20;99.90;;;;;;5044002;28;20501;-70
2023/12/31 10:36:07;;;;;;;6.07;2.60;;;9.20;99.90;;;;;;5033759;28;20036;-70
2023/12/31 10:38:46;;;;;;;4.37;2.40;;;9.20;99.90;;;;;;5044040;28;20043;-70
2023/12/31 10:41:17;;;;;;;9.45;2.80;;;9.20;99.90;;;;;;5035055;28;20056;-70
2023/12/31 10:43:47;;;;;;;5.85;2.50;;;9.30;99.90;;;;;;5039651;28;20037;-70
2023/12/31 10:46:15;;;;;;;3.72;2.17;;;9.30;99.90;;;;;;5039555;28;20044;-70
2023/12/31 10:49:10;;;;;;;3.00;2.10;;;9.30;99.90;;;;;;5037425;28;20425;-70
2023/12/31 10:51:39;;;;;;;4.38;2.00;;;9.30;99.90;;;;;;5018334;28;20050;-70
2023/12/31 10:54:08;;;;;;;4.88;2.45;;;9.40;99.90;;;;;;5017660;28;20412;-70
2023/12/31 10:56:34;;;;;;;4.63;2.42;;;9.40;99.90;;;;;;5039771;28;20041;-70
2023/12/31 10:59:01;;;;;;;3.67;1.98;;;9.40;99.90;;;;;;5042157;28;20523;-70
2023/12/31 11:01:28;;;;;;;4.00;2.00;;;9.30;99.90;;;;;;5035858;28;20072;-70
2023/12/31 11:03:56;;;;;;;3.95;2.20;;;9.40;99.90;;;;;;5039036;28;20045;-70
2023/12/31 11:06:22;;;;;;;3.55;1.77;;;9.30;99.90;;;;;;5039431;28;20080;-69
2023/12/31 11:08:49;;;;;;;2.63;1.05;;;9.30;99.90;;;;;;5042938;28;20037;-70
2023/12/31 11:11:16;;;;;;;2.35;0.70;;;9.10;99.90;;;;;;5039305;28;20025;-70
2023/12/31 11:13:54;;;;;;;1.45;0.80;;;9.00;99.90;;;;;;5041874;28;20453;-70
2023/12/31 11:16:46;;;;;;;1.15;0.70;;;8.90;99.90;;;;;;5041936;28;20056;-70
2023/12/31 11:19:49;;;;;;;1.52;0.75;;;8.70;99.90;;;;;;5027157;28;20049;-69
2023/12/31 11:22:50;;;;;;;3.15;0.47;;;8.60;99.90;;;;;;5034750;28;20477;-70
2023/12/31 11:25:26;;;;;;;2.25;0.68;;;8.50;99.90;;;;;;5017161;28;20037;-70
2023/12/31 11:27:54;;;;;;;2.20;0.57;;;8.40;99.90;;;;;;5034115;28;20073;-70
2023/12/31 11:30:48;;;;;;;1.33;0.52;;;8.30;99.90;;;;;;5041163;28;20409;-70
2023/12/31 11:33:38;;;;;;;1.00;0.63;;;8.30;99.90;;;;;;5040083;28;20047;-70
2023/12/31 11:36:07;;;;;;;2.00;0.65;;;8.30;99.90;;;;;;5042154;28;20037;-70
2023/12/31 11:38:53;;;;;;;1.85;0.50;;;8.20;99.90;;;;;;5015959;28;20104;-70
2023/12/31 11:41:19;;;;;;;2.33;0.45;;;8.20;99.90;;;;;;5029041;28;20094;-70
2023/12/31 11:43:45;;;;;;;4.57;0.70;;;8.20;99.90;;;;;;5041493;28;20057;-70
2023/12/31 11:46:40;;;;;;;2.70;0.52;;;8.20;99.90;;;;;;5036851;28;20072;-70
2023/12/31 11:49:07;;;;;;;2.03;0.50;;;8.20;99.90;;;;;;5039919;28;20131;-70
2023/12/31 11:51:54;;;;;;;4.13;0.70;;;8.20;99.90;;;;;;5038067;28;20528;-70
2023/12/31 11:54:40;;;;;;;2.22;0.88;;;8.30;99.90;;;;;;5012014;28;20055;-70
2023/12/31 11:57:09;;;;;;;2.50;0.75;;;8.30;99.90;;;;;;5036237;28;20623;-70
2023/12/31 11:59:39;;;;;;;1.92;0.82;;;8.40;99.90;;;;;;5040172;28;20087;-70
2023/12/31 12:02:06;;;;;;;2.85;0.50;;;8.50;99.90;;;;;;5033803;28;20041;-70
2023/12/31 12:04:32;;;;;;;1.42;0.60;;;8.70;99.90;;;;;;5033806;28;20063;-70
2023/12/31 12:06:58;;;;;;;3.42;0.63;;;8.80;99.90;;;;;;5040674;28;20047;-70
2023/12/31 12:09:29;;;;;;;1.20;0.57;;;9.00;99.90;;;;;;5037915;28;20115;-70
2023/12/31 12:12:06;;;;;;;1.60;0.73;;;9.20;99.90;;;;;;5037984;28;20520;-70
2023/12/31 12:14:32;;;;;;;1.80;1.00;;;9.30;99.90;;;;;;5038802;28;20321;-70
2023/12/31 12:16:59;;;;;;;2.08;0.77;;;9.40;99.90;;;;;;5026542;28;20594;-70
2023/12/31 12:19:25;;;;;;;1.77;0.90;;;9.50;99.90;;;;;;5041931;28;20044;-70
2023/12/31 12:21:51;;;;;;;2.88;0.50;;;9.40;99.90;;;;;;5028023;28;20551;-70
2023/12/31 12:24:17;;;;;;;3.15;1.35;;;9.30;99.90;;;;;;5038405;28;20329;-70
2023/12/31 12:26:48;;;;;;;2.33;0.70;;;9.20;99.90;;;;;;5031101;28;20150;-70
2023/12/31 12:29:15;;;;;;;2.22;0.73;;;9.20;99.90;;;;;;5024740;28;20034;-70
2023/12/31 12:31:46;;;;;;;1.63;0.73;;;9.10;99.90;;;;;;5028539;28;20042;-70
2023/12/31 12:34:14;;;;;;;3.85;1.20;;;9.00;99.90;;;;;;5028771;28;20053;-70
2023/12/31 12:36:41;;;;;;;2.22;0.77;;;9.00;99.90;;;;;;5042225;28;20053;-70
2023/12/31 12:39:13;;;;;;;2.83;1.33;;;9.00;99.90;;;;;;5036893;28;20056;-70
2023/12/31 12:42:01;;;;;;;6.45;1.15;;;9.10;99.90;;;;;;5029327;28;20059;-70
2023/12/31 12:44:27;;;;;;;4.25;0.95;;;9.10;99.90;;;;;;5027153;28;20037;-70
2023/12/31 12:46:53;;;;;;;2.00;0.80;;;9.00;99.90;;;;;;5024643;28;20521;-70
2023/12/31 12:49:22;;;;;;;2.87;0.90;;;9.10;99.90;;;;;;5022840;28;20062;-70
2023/12/31 12:51:47;;;;;;;2.03;0.95;;;9.10;99.90;;;;;;5029711;28;20540;-70
2023/12/31 12:54:14;;;;;;;2.07;0.80;;;9.00;99.90;;;;;;5033857;28;20048;-70
2023/12/31 12:56:39;;;;;;;1.75;0.95;;;9.00;99.90;;;;;;5032542;28;20052;-70
2023/12/31 12:59:05;;;;;;;1.57;0.80;;;8.90;99.90;;;;;;5032574;28;20489;-70